Hardenberg, Netherlands
Current Conditions -  °F | °C
As of 11:20 PM on Wednesday 22 Oct 2014 (Local Time) from ETWM Reporting Station
NA  
Wind Chill: 46°   Ceiling: NA
Heat Index: 48°   Visibility: 6mi
Dew Point: 43°   Wind: 5mph
Humidity: 82%   Direction: 250°WSW
Pressure: 30.12"   Gusts: NA
Location:  52.58°N, 6.62°E
Report Text: ETWM 222120Z AUTO 25004KT 9999 // ////// 09/06 Q1020 ///
Loading
Personal Weather Stations






























Interactive Weather Map
Tropical Storm Tracking
New forecast layout! Learn more

10-Day Weather Forecast

Advertisements
Track Severe Weather on mobile